Bobruysr, Belarus
Current Conditions -  °F | °C
As of 4:30 AM on Saturday 22 Nov 2014 (Local Time) from UMMS Reporting Station
Clear Clear  
Wind Chill: 23°   Ceiling: Unl
Heat Index: 23°   Visibility: 6mi
Dew Point: 18°   Wind: 0mph
Humidity: 80%   Direction: NA
Pressure: 30.33"   Gusts: NA
Location:  53.22°N, 29.18°E
Report Text: UMMS 220230Z 00000MPS CAVOK M05/M08 Q1027 R31/810350NOSIG
Loading
Personal Weather Stations






























Interactive Weather Map New forecast layout! Learn more

10-Day Weather Forecast

Advertisements
Track Severe Weather on mobile